Time;durP1;ratioP1;P1;durP2;ratioP2;P2;SDS_P1;SDS_P2;PMS_P1;PMS_P2;Temp;Humidity;BMP_temperature;BMP_pressure;BME280_temperature;BME280_humidity;BME280_pressure;Samples;Min_cycle;Max_cycle;Signal;HPM_P1;HPM_P2
2022/10/03 00:01:08;;;;;;;0.82;0.82;;;;;;;;;;5096873;28;20206;-63
2022/10/03 00:03:37;;;;;;;1.30;0.77;;;;;;;;;;5100481;28;20334;-63
2022/10/03 00:06:08;;;;;;;0.80;0.80;;;;;;;;;;5101027;28;20211;-63
2022/10/03 00:08:50;;;;;;;1.55;0.70;;;;;;;;;;5101078;28;20204;-63
2022/10/03 00:11:24;;;;;;;1.15;0.77;;;;;;;;;;5084742;28;20296;-64
2022/10/03 00:13:59;;;;;;;1.00;0.90;;;;;;;;;;5101341;28;20232;-64
2022/10/03 00:16:35;;;;;;;0.80;0.80;;;;;;;;;;5101025;28;20247;-63
2022/10/03 00:19:08;;;;;;;1.02;0.80;;;;;;;;;;5100921;28;20203;-63
2022/10/03 00:21:40;;;;;;;1.00;0.90;;;;;;;;;;5100864;28;20235;-63
2022/10/03 00:24:14;;;;;;;0.82;0.77;;;;;;;;;;5094483;28;20250;-63
2022/10/03 00:26:48;;;;;;;1.10;0.80;;;;;;;;;;5080511;28;20582;-63
2022/10/03 00:29:27;;;;;;;0.70;0.70;;;;;;;;;;5080501;28;20223;-63
2022/10/03 00:31:59;;;;;;;1.20;0.80;;;;;;;;;;5080518;28;20200;-63
2022/10/03 00:34:32;;;;;;;1.17;0.80;;;;;;;;;;5080108;28;20767;-63
2022/10/03 00:37:10;;;;;;;0.82;0.70;;;;;;;;;;5080270;28;20590;-63
2022/10/03 00:39:47;;;;;;;0.98;0.88;;;;;;;;;;5080263;28;20203;-63
2022/10/03 00:42:26;;;;;;;0.90;0.80;;;;;;;;;;5080199;28;20562;-63
2022/10/03 00:45:14;;;;;;;0.70;0.70;;;;;;;;;;5080515;28;20212;-63
2022/10/03 00:47:51;;;;;;;0.90;0.70;;;;;;;;;;5047092;28;20270;-63
2022/10/03 00:50:31;;;;;;;1.02;0.73;;;;;;;;;;5080178;28;20238;-63
2022/10/03 00:53:04;;;;;;;0.90;0.80;;;;;;;;;;5099007;28;20207;-63
2022/10/03 00:55:41;;;;;;;0.75;0.68;;;;;;;;;;5100090;28;20214;-63
2022/10/03 00:58:20;;;;;;;1.15;0.88;;;;;;;;;;5100285;28;20203;-63
2022/10/03 01:00:51;;;;;;;1.30;0.85;;;;;;;;;;5100211;28;20264;-63
2022/10/03 01:03:25;;;;;;;1.10;0.80;;;;;;;;;;5100020;28;20257;-63
2022/10/03 01:06:00;;;;;;;1.02;0.90;;;;;;;;;;5100115;28;20204;-63
2022/10/03 01:08:35;;;;;;;0.80;0.75;;;;;;;;;;5100048;28;20203;-63
2022/10/03 01:11:05;;;;;;;0.85;0.80;;;;;;;;;;5099950;28;20238;-63
2022/10/03 01:13:38;;;;;;;0.70;0.70;;;;;;;;;;5099494;28;20250;-63
2022/10/03 01:16:10;;;;;;;1.30;0.90;;;;;;;;;;5099762;28;20204;-63
2022/10/03 01:18:44;;;;;;;0.90;0.80;;;;;;;;;;5098189;28;20206;-63
2022/10/03 01:21:16;;;;;;;1.02;0.80;;;;;;;;;;5100106;28;20208;-63
2022/10/03 01:24:08;;;;;;;1.35;0.82;;;;;;;;;;5099809;28;20557;-63
2022/10/03 01:26:49;;;;;;;0.60;0.60;;;;;;;;;;5099738;28;20203;-63
2022/10/03 01:32:06;;;;;;;1.52;1.00;;;;;;;;;;5099213;28;20230;-63
2022/10/03 01:34:37;;;;;;;1.70;0.73;;;;;;;;;;5099803;28;20652;-63
2022/10/03 01:37:10;;;;;;;0.60;0.60;;;;;;;;;;5099719;28;20268;-63
2022/10/03 01:39:43;;;;;;;1.20;0.80;;;;;;;;;;5099491;28;20207;-63
2022/10/03 01:42:13;;;;;;;0.85;0.80;;;;;;;;;;5099237;28;20199;-63
2022/10/03 01:44:53;;;;;;;0.70;0.70;;;;;;;;;;5095041;28;20286;-63
2022/10/03 01:47:26;;;;;;;1.30;0.95;;;;;;;;;;5079260;28;20283;-63
2022/10/03 01:49:57;;;;;;;0.93;0.80;;;;;;;;;;5078982;28;20238;-63
2022/10/03 01:52:32;;;;;;;1.48;0.70;;;;;;;;;;5078898;28;20204;-63
2022/10/03 01:55:03;;;;;;;0.77;0.70;;;;;;;;;;5078933;28;20204;-63
2022/10/03 01:57:35;;;;;;;1.08;0.80;;;;;;;;;;5079083;28;20204;-63
2022/10/03 02:00:06;;;;;;;0.90;0.70;;;;;;;;;;5078547;28;20207;-63
2022/10/03 02:02:36;;;;;;;0.95;0.70;;;;;;;;;;5078786;28;20266;-63
2022/10/03 02:05:08;;;;;;;1.02;0.90;;;;;;;;;;5078474;28;20270;-63
2022/10/03 02:07:41;;;;;;;0.88;0.70;;;;;;;;;;5078560;28;20204;-63
2022/10/03 02:10:18;;;;;;;0.80;0.60;;;;;;;;;;5077956;28;20601;-63
2022/10/03 02:12:49;;;;;;;1.25;0.70;;;;;;;;;;5088826;28;20203;-63
2022/10/03 02:15:21;;;;;;;0.98;0.88;;;;;;;;;;5096562;28;20620;-63
2022/10/03 02:17:54;;;;;;;0.98;0.70;;;;;;;;;;5085289;28;20602;-63
2022/10/03 02:20:26;;;;;;;0.80;0.80;;;;;;;;;;5098524;28;20210;-63
2022/10/03 02:22:54;;;;;;;0.77;0.70;;;;;;;;;;5098734;28;20211;-63
2022/10/03 02:25:25;;;;;;;0.60;0.60;;;;;;;;;;5098408;28;20210;-63
2022/10/03 02:28:07;;;;;;;0.85;0.70;;;;;;;;;;5098710;28;20204;-63
2022/10/03 02:30:41;;;;;;;1.02;0.70;;;;;;;;;;5098835;28;20223;-63
2022/10/03 02:33:31;;;;;;;0.73;0.73;;;;;;;;;;5098863;28;20301;-63
2022/10/03 02:36:32;;;;;;;1.15;0.90;;;;;;;;;;5066120;28;20307;-63
2022/10/03 02:39:11;;;;;;;1.52;0.82;;;;;;;;;;5095651;28;20214;-63
2022/10/03 02:41:44;;;;;;;0.90;0.80;;;;;;;;;;5077296;28;20192;-63
2022/10/03 02:44:39;;;;;;;1.48;0.80;;;;;;;;;;5077651;28;20207;-63
2022/10/03 02:47:18;;;;;;;0.80;0.60;;;;;;;;;;5031562;28;20581;-63
2022/10/03 02:50:05;;;;;;;1.17;0.63;;;;;;;;;;5077844;28;20640;-63
2022/10/03 02:52:51;;;;;;;0.98;0.85;;;;;;;;;;5077399;28;20224;-63
2022/10/03 02:55:36;;;;;;;0.93;0.80;;;;;;;;;;5077321;28;20215;-63
2022/10/03 02:58:18;;;;;;;0.50;0.50;;;;;;;;;;5077393;28;20255;-63
2022/10/03 03:01:10;;;;;;;0.70;0.70;;;;;;;;;;5075133;28;20212;-63
2022/10/03 03:04:03;;;;;;;0.82;0.82;;;;;;;;;;5043224;28;20224;-63
2022/10/03 03:06:54;;;;;;;0.85;0.68;;;;;;;;;;5058820;28;20215;-63
2022/10/03 03:09:33;;;;;;;1.00;0.80;;;;;;;;;;5057149;28;20242;-63
2022/10/03 03:12:12;;;;;;;1.00;0.77;;;;;;;;;;5076981;28;20339;-63
2022/10/03 03:14:58;;;;;;;1.33;0.80;;;;;;;;;;5077157;28;20218;-63
2022/10/03 03:17:31;;;;;;;0.75;0.57;;;;;;;;;;5076949;28;20604;-63
2022/10/03 03:20:12;;;;;;;1.00;0.70;;;;;;;;;;5076924;28;20582;-63
2022/10/03 03:22:48;;;;;;;1.58;0.60;;;;;;;;;;5076421;28;20227;-64
2022/10/03 03:25:22;;;;;;;0.50;0.50;;;;;;;;;;5076579;28;20295;-64
2022/10/03 03:27:57;;;;;;;1.05;0.70;;;;;;;;;;5077164;28;20204;-64
2022/10/03 03:30:28;;;;;;;0.77;0.60;;;;;;;;;;5077118;28;20211;-64
2022/10/03 03:33:02;;;;;;;1.77;0.75;;;;;;;;;;5076789;28;20219;-64
2022/10/03 03:35:38;;;;;;;0.85;0.60;;;;;;;;;;5075941;28;20291;-64
2022/10/03 03:38:13;;;;;;;1.27;0.60;;;;;;;;;;5076330;28;20291;-64
2022/10/03 03:40:44;;;;;;;0.57;0.57;;;;;;;;;;5076934;28;20211;-64
2022/10/03 03:43:18;;;;;;;0.90;0.73;;;;;;;;;;5077157;28;20285;-64
2022/10/03 03:45:56;;;;;;;0.70;0.50;;;;;;;;;;5077382;28;20235;-63
2022/10/03 03:48:38;;;;;;;0.70;0.50;;;;;;;;;;5077413;28;20204;-63
2022/10/03 03:51:11;;;;;;;1.27;0.73;;;;;;;;;;5074347;28;20234;-63
2022/10/03 03:53:52;;;;;;;0.60;0.60;;;;;;;;;;5077153;28;20247;-63
2022/10/03 03:56:29;;;;;;;0.85;0.80;;;;;;;;;;5076581;28;20206;-63
2022/10/03 03:59:00;;;;;;;0.95;0.70;;;;;;;;;;5077206;28;20204;-63
2022/10/03 04:01:36;;;;;;;0.93;0.60;;;;;;;;;;5075530;28;20487;-63
2022/10/03 04:04:13;;;;;;;0.70;0.60;;;;;;;;;;5037368;28;20511;-63
2022/10/03 04:06:47;;;;;;;1.35;0.70;;;;;;;;;;5036969;28;20197;-64
2022/10/03 04:09:36;;;;;;;0.70;0.60;;;;;;;;;;5036862;28;20210;-64
2022/10/03 04:12:08;;;;;;;1.13;0.65;;;;;;;;;;5027823;28;20544;-64
2022/10/03 04:14:50;;;;;;;0.95;0.68;;;;;;;;;;5037297;28;20228;-64
2022/10/03 04:20:20;;;;;;;0.95;0.80;;;;;;;;;;5055834;28;20196;-64
2022/10/03 04:22:59;;;;;;;0.90;0.68;;;;;;;;;;5055881;28;20220;-64
2022/10/03 04:25:33;;;;;;;1.13;0.80;;;;;;;;;;5055595;28;20244;-64
2022/10/03 04:28:17;;;;;;;0.93;0.70;;;;;;;;;;5055781;28;20301;-64
2022/10/03 04:30:52;;;;;;;0.80;0.60;;;;;;;;;;5038605;28;21696;-64
2022/10/03 04:33:28;;;;;;;1.05;0.70;;;;;;;;;;5036565;28;20236;-64
2022/10/03 04:36:16;;;;;;;0.98;0.60;;;;;;;;;;5036002;28;20233;-63
2022/10/03 04:38:51;;;;;;;1.23;0.63;;;;;;;;;;5036173;28;20342;-63
2022/10/03 04:41:27;;;;;;;1.23;0.77;;;;;;;;;;5035967;28;20209;-63
2022/10/03 04:43:59;;;;;;;0.73;0.50;;;;;;;;;;5035706;28;20206;-63
2022/10/03 04:46:28;;;;;;;1.35;0.80;;;;;;;;;;5036295;28;20543;-63
2022/10/03 04:49:00;;;;;;;0.95;0.68;;;;;;;;;;5036852;28;20205;-63
2022/10/03 04:51:33;;;;;;;0.70;0.65;;;;;;;;;;5039626;28;20229;-63
2022/10/03 04:54:04;;;;;;;1.02;0.63;;;;;;;;;;5039990;28;20205;-63
2022/10/03 04:56:41;;;;;;;0.82;0.50;;;;;;;;;;5042881;28;20626;-63
2022/10/03 04:59:13;;;;;;;0.70;0.65;;;;;;;;;;5060127;28;20212;-63
2022/10/03 05:01:45;;;;;;;0.80;0.60;;;;;;;;;;5062831;28;20219;-63
2022/10/03 05:04:20;;;;;;;0.88;0.50;;;;;;;;;;5099937;28;20203;-63
2022/10/03 05:06:51;;;;;;;1.00;0.55;;;;;;;;;;5099483;28;20218;-63
2022/10/03 05:09:25;;;;;;;1.35;0.65;;;;;;;;;;5099627;28;20215;-63
2022/10/03 05:11:58;;;;;;;1.02;0.70;;;;;;;;;;5099374;28;20227;-63
2022/10/03 05:14:28;;;;;;;1.00;0.70;;;;;;;;;;5099349;28;20280;-63
2022/10/03 05:17:00;;;;;;;1.00;0.75;;;;;;;;;;5099189;28;20496;-63
2022/10/03 05:19:41;;;;;;;0.73;0.60;;;;;;;;;;5099387;28;20208;-63
2022/10/03 05:22:12;;;;;;;1.10;0.77;;;;;;;;;;5099568;28;20510;-63
2022/10/03 05:24:45;;;;;;;0.93;0.73;;;;;;;;;;5089180;28;20196;-65
2022/10/03 05:27:16;;;;;;;1.40;0.70;;;;;;;;;;5079621;28;20205;-64
2022/10/03 05:29:47;;;;;;;1.00;0.57;;;;;;;;;;5079400;28;20208;-64
2022/10/03 05:32:20;;;;;;;0.50;0.50;;;;;;;;;;5079239;28;20232;-64
2022/10/03 05:34:53;;;;;;;0.68;0.50;;;;;;;;;;5079212;28;20211;-64
2022/10/03 05:37:28;;;;;;;0.68;0.60;;;;;;;;;;5079381;28;20219;-64
2022/10/03 05:39:59;;;;;;;0.60;0.43;;;;;;;;;;5078886;28;20203;-64
2022/10/03 05:42:47;;;;;;;0.60;0.60;;;;;;;;;;5079304;28;20243;-64
2022/10/03 05:45:23;;;;;;;1.30;0.65;;;;;;;;;;5072913;28;20204;-64
2022/10/03 05:47:54;;;;;;;1.02;0.60;;;;;;;;;;5079072;28;20208;-63
2022/10/03 05:50:41;;;;;;;0.77;0.52;;;;;;;;;;5078831;28;20211;-63
2022/10/03 05:53:17;;;;;;;1.27;0.60;;;;;;;;;;5079499;28;20236;-63
2022/10/03 05:55:52;;;;;;;1.20;0.70;;;;;;;;;;5078929;28;20211;-63
2022/10/03 05:58:38;;;;;;;0.80;0.70;;;;;;;;;;5078354;28;20504;-63
2022/10/03 06:01:23;;;;;;;1.27;0.60;;;;;;;;;;5077953;28;20208;-63
2022/10/03 06:04:00;;;;;;;1.17;0.80;;;;;;;;;;5078226;28;20674;-63
2022/10/03 06:06:34;;;;;;;0.63;0.60;;;;;;;;;;5078568;28;20212;-63
2022/10/03 06:09:18;;;;;;;0.40;0.40;;;;;;;;;;5079040;28;20537;-63
2022/10/03 06:11:53;;;;;;;0.93;0.60;;;;;;;;;;5078234;28;20229;-63
2022/10/03 06:14:38;;;;;;;1.25;0.70;;;;;;;;;;5078372;28;20219;-63
2022/10/03 06:17:24;;;;;;;0.60;0.50;;;;;;;;;;5077274;28;20297;-63
2022/10/03 06:19:55;;;;;;;0.82;0.60;;;;;;;;;;5088620;28;20288;-63
2022/10/03 06:22:37;;;;;;;0.73;0.50;;;;;;;;;;5098538;28;20235;-64
2022/10/03 06:25:17;;;;;;;0.63;0.40;;;;;;;;;;5098806;28;20199;-64
2022/10/03 06:28:01;;;;;;;0.75;0.57;;;;;;;;;;5098498;28;20250;-64
2022/10/03 06:30:40;;;;;;;0.85;0.50;;;;;;;;;;5098489;28;20214;-64
2022/10/03 06:33:31;;;;;;;1.45;0.70;;;;;;;;;;5098071;28;20232;-63
2022/10/03 06:36:22;;;;;;;0.88;0.50;;;;;;;;;;5098111;28;20226;-63
2022/10/03 06:39:08;;;;;;;0.80;0.60;;;;;;;;;;5078523;28;20204;-63
2022/10/03 06:42:09;;;;;;;1.08;0.68;;;;;;;;;;5098263;28;20203;-63
2022/10/03 06:44:53;;;;;;;1.63;0.60;;;;;;;;;;5097895;28;20214;-63
2022/10/03 06:47:39;;;;;;;1.48;0.63;;;;;;;;;;5051467;28;20265;-63
2022/10/03 06:50:19;;;;;;;0.80;0.50;;;;;;;;;;5077394;28;20209;-63
2022/10/03 06:52:55;;;;;;;1.20;0.60;;;;;;;;;;5077296;28;20247;-64
2022/10/03 06:55:30;;;;;;;1.20;0.50;;;;;;;;;;5077725;28;20214;-64
2022/10/03 06:58:16;;;;;;;1.20;0.60;;;;;;;;;;5077419;28;20203;-64
2022/10/03 07:00:48;;;;;;;0.60;0.57;;;;;;;;;;5077426;28;20625;-64
2022/10/03 07:03:30;;;;;;;1.10;0.60;;;;;;;;;;5077393;28;20606;-63
2022/10/03 07:06:18;;;;;;;0.75;0.50;;;;;;;;;;5076607;28;20204;-63
2022/10/03 07:09:03;;;;;;;0.80;0.55;;;;;;;;;;5070403;28;20215;-63
2022/10/03 07:11:46;;;;;;;1.38;0.60;;;;;;;;;;5076198;28;20223;-63
2022/10/03 07:14:35;;;;;;;0.90;0.60;;;;;;;;;;5083481;28;20199;-63
2022/10/03 07:17:21;;;;;;;1.35;0.80;;;;;;;;;;5096912;28;20265;-63
2022/10/03 07:19:59;;;;;;;1.05;0.60;;;;;;;;;;5097337;28;20654;-63
2022/10/03 07:22:48;;;;;;;0.93;0.75;;;;;;;;;;5096877;28;20199;-63
2022/10/03 07:25:30;;;;;;;0.70;0.70;;;;;;;;;;5097067;28;20222;-63
2022/10/03 07:28:12;;;;;;;0.75;0.57;;;;;;;;;;5096299;28;20214;-63
2022/10/03 07:30:51;;;;;;;1.60;0.70;;;;;;;;;;5093421;28;20204;-63
2022/10/03 07:33:36;;;;;;;0.73;0.60;;;;;;;;;;5097041;28;20241;-63
2022/10/03 07:39:12;;;;;;;0.98;0.60;;;;;;;;;;5046089;28;20203;-64
2022/10/03 07:41:48;;;;;;;1.00;0.60;;;;;;;;;;5096306;28;20484;-63
2022/10/03 07:44:23;;;;;;;1.00;0.65;;;;;;;;;;5096509;28;20207;-63
2022/10/03 07:47:08;;;;;;;1.13;0.70;;;;;;;;;;5097365;28;20203;-63
2022/10/03 07:49:52;;;;;;;1.02;0.93;;;;;;;;;;5096889;28;20211;-63
2022/10/03 07:52:37;;;;;;;0.90;0.63;;;;;;;;;;5053317;28;20682;-63
2022/10/03 07:55:28;;;;;;;0.95;0.70;;;;;;;;;;5096089;28;20213;-63
2022/10/03 07:58:19;;;;;;;1.13;0.70;;;;;;;;;;5076665;28;20212;-63
2022/10/03 08:00:57;;;;;;;0.65;0.57;;;;;;;;;;5076505;28;20214;-63
2022/10/03 08:03:39;;;;;;;0.60;0.60;;;;;;;;;;5086554;28;20227;-63
2022/10/03 08:06:17;;;;;;;1.40;0.73;;;;;;;;;;5076265;28;20204;-63
2022/10/03 08:09:14;;;;;;;1.02;0.80;;;;;;;;;;5076392;28;20718;-63
2022/10/03 08:12:05;;;;;;;1.00;0.50;;;;;;;;;;5076095;28;20211;-63
2022/10/03 08:14:41;;;;;;;2.10;0.90;;;;;;;;;;5055870;28;20226;-63
2022/10/03 08:17:25;;;;;;;0.90;0.70;;;;;;;;;;5075933;28;20473;-63
2022/10/03 08:20:13;;;;;;;1.65;0.65;;;;;;;;;;5076133;28;20311;-63
2022/10/03 08:22:45;;;;;;;1.98;0.60;;;;;;;;;;5075936;28;20200;-63
2022/10/03 08:25:26;;;;;;;1.55;0.70;;;;;;;;;;5079551;28;20220;-63
2022/10/03 08:28:12;;;;;;;2.03;0.57;;;;;;;;;;5079423;28;20204;-63
2022/10/03 08:30:47;;;;;;;1.83;0.70;;;;;;;;;;5065563;28;20212;-63
2022/10/03 08:33:33;;;;;;;1.35;0.63;;;;;;;;;;5079298;28;20228;-63
2022/10/03 08:36:18;;;;;;;1.98;0.70;;;;;;;;;;5083769;28;20571;-64
2022/10/03 08:39:17;;;;;;;2.03;0.70;;;;;;;;;;5072292;28;20226;-64
2022/10/03 08:42:11;;;;;;;1.52;0.82;;;;;;;;;;4998181;28;20302;-64
2022/10/03 08:44:56;;;;;;;2.65;1.10;;;;;;;;;;5076228;28;20204;-64
2022/10/03 08:47:50;;;;;;;1.77;0.73;;;;;;;;;;5065747;28;20204;-64
2022/10/03 08:50:48;;;;;;;2.55;0.80;;;;;;;;;;5079008;28;20228;-63
2022/10/03 08:53:38;;;;;;;2.38;0.90;;;;;;;;;;4997728;28;20231;-63
2022/10/03 08:56:08;;;;;;;1.52;0.70;;;;;;;;;;5072867;28;20204;-63
2022/10/03 08:58:55;;;;;;;0.90;0.60;;;;;;;;;;5078835;28;20215;-63
2022/10/03 09:01:29;;;;;;;0.77;0.73;;;;;;;;;;5079081;28;20220;-63
2022/10/03 09:04:19;;;;;;;1.98;0.80;;;;;;;;;;5087908;28;20206;-63
2022/10/03 09:06:57;;;;;;;0.88;0.65;;;;;;;;;;5098842;28;20215;-63
2022/10/03 09:09:45;;;;;;;1.55;0.82;;;;;;;;;;5099127;28;20210;-63
2022/10/03 09:12:31;;;;;;;1.50;0.80;;;;;;;;;;5092215;28;20233;-63
2022/10/03 09:15:19;;;;;;;1.30;0.73;;;;;;;;;;5098426;28;20203;-63
2022/10/03 09:18:04;;;;;;;1.10;0.70;;;;;;;;;;5064351;28;20218;-63
2022/10/03 09:20:53;;;;;;;2.35;0.85;;;;;;;;;;5098855;28;20203;-63
2022/10/03 09:23:41;;;;;;;2.17;0.70;;;;;;;;;;5098671;28;20199;-63
2022/10/03 09:26:26;;;;;;;2.17;0.90;;;;;;;;;;5092052;28;20211;-63
2022/10/03 09:29:20;;;;;;;1.77;0.80;;;;;;;;;;5085832;28;20265;-63
2022/10/03 09:32:06;;;;;;;1.40;0.80;;;;;;;;;;5085215;28;20200;-63
2022/10/03 09:35:01;;;;;;;2.13;0.75;;;;;;;;;;5076632;28;20737;-63
2022/10/03 09:37:44;;;;;;;1.75;0.82;;;;;;;;;;5076534;28;20200;-63
2022/10/03 09:40:30;;;;;;;1.85;0.80;;;;;;;;;;5078228;28;20503;-63
2022/10/03 09:43:08;;;;;;;2.03;0.80;;;;;;;;;;5077920;28;20501;-63
2022/10/03 09:45:54;;;;;;;1.58;0.93;;;;;;;;;;5078759;28;20204;-63
2022/10/03 09:48:35;;;;;;;2.90;0.70;;;;;;;;;;5077877;28;20203;-63
2022/10/03 09:51:21;;;;;;;2.65;0.70;;;;;;;;;;5078180;28;20204;-63
2022/10/03 09:54:22;;;;;;;1.80;0.70;;;;;;;;;;5064930;28;20228;-63
2022/10/03 09:57:07;;;;;;;1.30;0.90;;;;;;;;;;5077523;28;20276;-63
2022/10/03 09:59:49;;;;;;;1.38;0.55;;;;;;;;;;5077489;28;20525;-63
2022/10/03 10:02:29;;;;;;;2.10;0.88;;;;;;;;;;5075260;28;20239;-63
2022/10/03 10:05:13;;;;;;;0.90;0.70;;;;;;;;;;5077760;28;20491;-63
2022/10/03 10:07:53;;;;;;;2.35;1.10;;;;;;;;;;5077280;28;20204;-63
2022/10/03 10:10:35;;;;;;;2.92;1.00;;;;;;;;;;5077472;28;20249;-63
2022/10/03 10:13:20;;;;;;;2.75;0.90;;;;;;;;;;5060163;28;20228;-63
2022/10/03 10:16:08;;;;;;;2.75;0.90;;;;;;;;;;5064214;28;20211;-63
2022/10/03 10:18:52;;;;;;;3.47;1.20;;;;;;;;;;5076419;28;20306;-63
2022/10/03 10:21:34;;;;;;;2.75;1.10;;;;;;;;;;5076674;28;20204;-63
2022/10/03 10:24:10;;;;;;;1.40;0.82;;;;;;;;;;5074493;28;20201;-63
2022/10/03 10:26:52;;;;;;;1.80;1.00;;;;;;;;;;5092886;28;20211;-63
2022/10/03 10:29:38;;;;;;;1.10;0.95;;;;;;;;;;5096991;28;20294;-63
2022/10/03 10:32:24;;;;;;;1.50;0.90;;;;;;;;;;5096648;28;20199;-63
2022/10/03 10:35:10;;;;;;;1.70;1.00;;;;;;;;;;5096427;28;20204;-63
2022/10/03 10:37:53;;;;;;;2.05;1.02;;;;;;;;;;5096878;28;20265;-63
2022/10/03 10:40:32;;;;;;;1.20;0.90;;;;;;;;;;5094993;28;20268;-63
2022/10/03 10:43:27;;;;;;;0.98;0.88;;;;;;;;;;5096966;28;20211;-63
2022/10/03 10:46:06;;;;;;;1.40;0.93;;;;;;;;;;5096876;28;20207;-63
2022/10/03 10:48:52;;;;;;;1.30;0.80;;;;;;;;;;5097297;28;20237;-63
2022/10/03 10:51:39;;;;;;;1.73;0.85;;;;;;;;;;5097458;28;20214;-63
2022/10/03 10:54:40;;;;;;;0.88;0.75;;;;;;;;;;5079798;28;20631;-63
2022/10/03 10:57:16;;;;;;;2.58;0.82;;;;;;;;;;4995003;28;20811;-63
2022/10/03 11:00:04;;;;;;;1.33;0.93;;;;;;;;;;4995632;28;20206;-63
2022/10/03 11:02:50;;;;;;;1.52;1.02;;;;;;;;;;5048556;28;20236;-63
2022/10/03 11:05:47;;;;;;;1.65;0.98;;;;;;;;;;5075632;28;20507;-63
2022/10/03 11:08:32;;;;;;;1.23;0.93;;;;;;;;;;5076889;28;20204;-63
2022/10/03 11:11:07;;;;;;;1.38;1.00;;;;;;;;;;5076226;28;20698;-63
2022/10/03 11:14:01;;;;;;;2.10;1.00;;;;;;;;;;5076665;28;20498;-63
2022/10/03 11:16:43;;;;;;;1.13;0.77;;;;;;;;;;5075356;28;20197;-63
2022/10/03 11:19:35;;;;;;;1.33;0.80;;;;;;;;;;5075740;28;20204;-64
2022/10/03 11:22:26;;;;;;;1.55;0.85;;;;;;;;;;5076264;28;20203;-64
2022/10/03 11:25:15;;;;;;;2.53;0.88;;;;;;;;;;5076381;28;20497;-63
2022/10/03 11:28:07;;;;;;;2.03;1.20;;;;;;;;;;5075986;28;20211;-64
2022/10/03 11:31:05;;;;;;;1.65;0.88;;;;;;;;;;5075653;28;20200;-63
2022/10/03 11:33:59;;;;;;;1.20;0.80;;;;;;;;;;4993582;28;20802;-63
2022/10/03 11:36:42;;;;;;;1.08;0.80;;;;;;;;;;5036639;28;20602;-63
2022/10/03 11:39:15;;;;;;;3.60;0.95;;;;;;;;;;5060134;28;20293;-63
2022/10/03 11:41:47;;;;;;;2.85;0.95;;;;;;;;;;5079198;28;20210;-63
2022/10/03 11:44:20;;;;;;;1.30;0.90;;;;;;;;;;5095833;28;20451;-63
2022/10/03 11:47:03;;;;;;;1.25;0.88;;;;;;;;;;5095231;28;20208;-63
2022/10/03 11:49:49;;;;;;;1.95;0.90;;;;;;;;;;5095209;28;20231;-64
2022/10/03 11:52:26;;;;;;;1.45;1.02;;;;;;;;;;5095154;28;20204;-63
2022/10/03 11:54:59;;;;;;;1.67;0.80;;;;;;;;;;5095023;28;20288;-63
2022/10/03 11:57:29;;;;;;;2.50;1.10;;;;;;;;;;5094548;28;20204;-63
2022/10/03 11:59:59;;;;;;;1.92;0.82;;;;;;;;;;5099342;28;20214;-63
2022/10/03 12:02:44;;;;;;;6.95;1.05;;;;;;;;;;5097755;28;20239;-63
2022/10/03 12:05:15;;;;;;;2.67;0.80;;;;;;;;;;5099529;28;20207;-63
2022/10/03 12:10:42;;;;;;;2.28;0.88;;;;;;;;;;5082328;28;20295;-64
2022/10/03 12:13:13;;;;;;;3.85;1.15;;;;;;;;;;5078389;28;20219;-64
2022/10/03 12:15:42;;;;;;;2.72;0.80;;;;;;;;;;5078870;28;20200;-64
2022/10/03 12:18:15;;;;;;;2.92;0.90;;;;;;;;;;5079070;28;20208;-63
2022/10/03 12:20:57;;;;;;;2.80;0.98;;;;;;;;;;5078400;28;20208;-63
2022/10/03 12:23:31;;;;;;;3.63;0.90;;;;;;;;;;5077672;28;20204;-63
2022/10/03 12:26:02;;;;;;;4.32;1.00;;;;;;;;;;5077558;28;20214;-63
2022/10/03 12:28:34;;;;;;;4.00;1.02;;;;;;;;;;5077370;28;20211;-63
2022/10/03 12:31:07;;;;;;;4.60;1.20;;;;;;;;;;5077201;28;20204;-63
2022/10/03 12:33:42;;;;;;;4.53;1.00;;;;;;;;;;5077125;28;20227;-63
2022/10/03 12:36:12;;;;;;;4.90;1.33;;;;;;;;;;5077934;28;20215;-63
2022/10/03 13:10:22;;;;;;;6.97;1.20;;;;;;;;;;5133241;27;20602;-66
2022/10/03 13:12:53;;;;;;;6.80;1.27;;;;;;;;;;5133969;27;20202;-64
2022/10/03 13:15:41;;;;;;;5.93;1.40;;;;;;;;;;5133122;27;20202;-65
2022/10/03 13:18:14;;;;;;;5.90;1.48;;;;;;;;;;5132018;27;20218;-64
2022/10/03 13:20:45;;;;;;;6.03;0.80;;;;;;;;;;5133257;27;20253;-64
2022/10/03 13:23:20;;;;;;;4.30;1.02;;;;;;;;;;5132225;27;20213;-64
2022/10/03 13:25:54;;;;;;;6.18;1.20;;;;;;;;;;5132087;27;20198;-66
2022/10/03 13:28:23;;;;;;;4.13;0.90;;;;;;;;;;5133463;27;20278;-66
2022/10/03 13:30:54;;;;;;;3.53;1.13;;;;;;;;;;5133447;27;20209;-66
2022/10/03 13:33:23;;;;;;;3.47;1.10;;;;;;;;;;5132913;27;20289;-63
2022/10/03 13:36:01;;;;;;;2.20;0.77;;;;;;;;;;5132983;27;20212;-65
2022/10/03 13:38:47;;;;;;;2.63;0.80;;;;;;;;;;5133113;27;20286;-67
2022/10/03 13:41:24;;;;;;;3.33;0.90;;;;;;;;;;5133394;27;20648;-64
2022/10/03 13:43:55;;;;;;;1.63;0.80;;;;;;;;;;5132051;27;20488;-64
2022/10/03 13:46:27;;;;;;;4.55;1.15;;;;;;;;;;5132469;27;20214;-64
2022/10/03 13:48:59;;;;;;;3.13;1.02;;;;;;;;;;5131926;27;20191;-64
2022/10/03 13:51:33;;;;;;;3.47;0.98;;;;;;;;;;5132409;27;20263;-64
2022/10/03 13:54:03;;;;;;;3.63;1.08;;;;;;;;;;5132293;27;20202;-64
2022/10/03 13:56:44;;;;;;;5.60;0.98;;;;;;;;;;5132725;27;20209;-66
2022/10/03 13:59:21;;;;;;;4.65;1.02;;;;;;;;;;5132307;27;20218;-64
2022/10/03 14:01:53;;;;;;;3.35;0.98;;;;;;;;;;5133045;27;20209;-64
2022/10/03 14:04:36;;;;;;;4.50;1.25;;;;;;;;;;5132668;27;20203;-65
2022/10/03 14:21:03;;;;;;;4.63;1.10;;;;;;;;;;5153543;27;20533;-65
2022/10/03 14:23:33;;;;;;;6.45;1.27;;;;;;;;;;5151944;27;20197;-64
2022/10/03 14:26:04;;;;;;;4.03;0.90;;;;;;;;;;5152080;27;20193;-64
2022/10/03 14:28:39;;;;;;;2.83;0.88;;;;;;;;;;5151748;27;20217;-64
2022/10/03 14:31:11;;;;;;;1.92;0.63;;;;;;;;;;5152436;27;20212;-64
2022/10/03 14:33:43;;;;;;;2.75;1.10;;;;;;;;;;5153445;27;20201;-64
2022/10/03 14:36:26;;;;;;;6.00;1.35;;;;;;;;;;5152212;27;20288;-65
2022/10/03 14:39:07;;;;;;;2.67;0.98;;;;;;;;;;5153112;27;20194;-65
2022/10/03 14:41:42;;;;;;;4.57;1.15;;;;;;;;;;5153306;27;20213;-66
2022/10/03 14:44:11;;;;;;;2.92;1.08;;;;;;;;;;5153128;27;20208;-66
2022/10/03 14:46:42;;;;;;;2.30;0.70;;;;;;;;;;5152983;27;20206;-64
2022/10/03 14:49:15;;;;;;;2.60;0.90;;;;;;;;;;5152391;27;20218;-67
2022/10/03 14:51:47;;;;;;;2.17;0.82;;;;;;;;;;5152545;27;20205;-66
2022/10/03 14:54:18;;;;;;;4.47;0.88;;;;;;;;;;5152868;27;20210;-65
2022/10/03 14:56:47;;;;;;;2.90;0.98;;;;;;;;;;5152859;27;20209;-64
2022/10/03 14:59:19;;;;;;;1.73;0.82;;;;;;;;;;5151806;27;20186;-64
2022/10/03 15:01:52;;;;;;;3.78;0.82;;;;;;;;;;5151867;27;20229;-66
2022/10/03 15:04:26;;;;;;;4.30;0.80;;;;;;;;;;5151984;27;20202;-64
2022/10/03 15:06:56;;;;;;;2.28;0.73;;;;;;;;;;5152612;27;20484;-66
2022/10/03 15:09:26;;;;;;;1.90;0.90;;;;;;;;;;5153449;27;20221;-64
2022/10/03 15:11:58;;;;;;;2.88;0.70;;;;;;;;;;5152730;27;20208;-64
2022/10/03 15:14:28;;;;;;;1.02;0.85;;;;;;;;;;5153206;27;20194;-63
2022/10/03 15:16:56;;;;;;;1.45;0.90;;;;;;;;;;5152889;27;20217;-64
2022/10/03 15:19:28;;;;;;;1.17;0.70;;;;;;;;;;5153129;27;20229;-64
2022/10/03 15:21:59;;;;;;;1.90;0.70;;;;;;;;;;5139004;27;20198;-64
2022/10/03 15:24:29;;;;;;;1.08;0.75;;;;;;;;;;5139657;27;20213;-64
2022/10/03 15:27:00;;;;;;;2.08;0.77;;;;;;;;;;5138605;27;20186;-64
2022/10/03 15:29:28;;;;;;;0.90;0.70;;;;;;;;;;5139237;27;20258;-64
2022/10/03 15:31:56;;;;;;;1.17;0.65;;;;;;;;;;5139145;27;20198;-65
2022/10/03 15:34:25;;;;;;;1.85;0.82;;;;;;;;;;5139255;27;20258;-64
2022/10/03 15:36:54;;;;;;;1.13;0.80;;;;;;;;;;5137890;27;20199;-64
2022/10/03 15:39:25;;;;;;;1.10;0.80;;;;;;;;;;5139084;27;20524;-64
2022/10/03 15:41:55;;;;;;;2.35;0.70;;;;;;;;;;5138675;27;20758;-64
2022/10/03 15:44:27;;;;;;;2.58;0.80;;;;;;;;;;5139086;27;20210;-64
2022/10/03 15:46:57;;;;;;;0.70;0.57;;;;;;;;;;5138307;27;20194;-64
2022/10/03 15:49:26;;;;;;;0.98;0.65;;;;;;;;;;5138712;27;20627;-65
2022/10/03 15:51:55;;;;;;;1.30;0.80;;;;;;;;;;5138350;27;20225;-64
2022/10/03 15:54:25;;;;;;;1.55;0.80;;;;;;;;;;5138226;27;20270;-64
2022/10/03 15:56:55;;;;;;;3.17;0.75;;;;;;;;;;5138676;27;20198;-64
2022/10/03 15:59:26;;;;;;;1.48;0.60;;;;;;;;;;5137977;27;20202;-64
2022/10/03 16:01:55;;;;;;;2.47;2.00;;;;;;;;;;5138284;27;20225;-64
2022/10/03 16:04:24;;;;;;;52.95;47.58;;;;;;;;;;5138412;27;20515;-64
2022/10/03 16:06:58;;;;;;;81.15;72.53;;;;;;;;;;5137913;27;20202;-64
2022/10/03 16:09:31;;;;;;;73.85;66.07;;;;;;;;;;5138038;27;20222;-64
2022/10/03 16:12:05;;;;;;;65.78;58.80;;;;;;;;;;5138423;27;20202;-64
2022/10/03 16:14:37;;;;;;;67.95;60.50;;;;;;;;;;5138209;27;20212;-65
2022/10/03 16:17:13;;;;;;;63.65;56.88;;;;;;;;;;5137493;27;20198;-64
2022/10/03 16:19:42;;;;;;;60.63;54.33;;;;;;;;;;5138242;27;20497;-65
2022/10/03 16:22:13;;;;;;;58.72;52.65;;;;;;;;;;5125080;27;20229;-64
2022/10/03 16:24:44;;;;;;;48.42;43.35;;;;;;;;;;5117501;28;20199;-64
2022/10/03 16:27:15;;;;;;;50.10;44.80;;;;;;;;;;5116371;28;20199;-64
2022/10/03 16:29:48;;;;;;;77.70;69.68;;;;;;;;;;5116936;28;20700;-64
2022/10/03 16:32:18;;;;;;;104.82;94.00;;;;;;;;;;5116813;28;20605;-64
2022/10/03 16:34:46;;;;;;;84.13;75.03;;;;;;;;;;5117359;28;20203;-64
2022/10/03 16:37:18;;;;;;;78.35;69.95;;;;;;;;;;5116732;28;20203;-64
2022/10/03 16:39:50;;;;;;;72.00;64.43;;;;;;;;;;5116614;28;20198;-64
2022/10/03 16:42:19;;;;;;;65.40;58.60;;;;;;;;;;5117045;28;20599;-64